createdAt,value
2022-10-11T00:00:56.523Z,95137.63
2022-10-11T00:03:24.525Z,95143.13
2022-10-11T00:05:53.901Z,95147.91
2022-10-11T00:08:23.231Z,95146.28
2022-10-11T00:10:58.075Z,95158.72
2022-10-11T00:13:26.336Z,95146.03
2022-10-11T00:15:55.264Z,95143.13
2022-10-11T00:18:23.541Z,95132.41
2022-10-11T00:20:51.517Z,95129.81
2022-10-11T00:23:19.512Z,95132.50
2022-10-11T00:25:57.965Z,95135.63
2022-10-11T00:28:25.993Z,95129.44
2022-10-11T00:30:53.949Z,95135.19
2022-10-11T00:33:22.123Z,95126.91
2022-10-11T00:35:50.392Z,95131.78
2022-10-11T00:38:19.231Z,95127.91
2022-10-11T00:40:48.613Z,95120.41
2022-10-11T00:43:18.616Z,95119.41
2022-10-11T00:46:29.809Z,95116.47
2022-10-11T00:49:04.071Z,95107.63
2022-10-11T00:51:40.496Z,95108.78
2022-10-11T00:54:12.811Z,95103.84
2022-10-11T00:56:44.918Z,95105.00
2022-10-11T00:59:17.681Z,95102.28
2022-10-11T01:01:45.878Z,95096.25
2022-10-11T01:04:13.985Z,95089.97
2022-10-11T01:06:43.083Z,95079.13
2022-10-11T01:09:11.910Z,95098.50
2022-10-11T01:11:43.567Z,95083.25
2022-10-11T01:14:33.404Z,95079.13
2022-10-11T01:17:10.299Z,95088.75
2022-10-11T01:19:53.868Z,95081.59
2022-10-11T01:22:38.896Z,95084.41
2022-10-11T01:25:19.751Z,95075.13
2022-10-11T01:28:03.850Z,95068.63
2022-10-11T01:30:35.368Z,95084.81
2022-10-11T01:33:14.213Z,95063.91
2022-10-11T01:35:50.596Z,95062.47
2022-10-11T01:38:25.102Z,95061.94
2022-10-11T01:40:57.580Z,95056.53
2022-10-11T01:43:27.363Z,95049.03
2022-10-11T01:45:59.322Z,95060.03
2022-10-11T01:48:27.312Z,95056.44
2022-10-11T01:50:58.657Z,95056.44
2022-10-11T01:53:53.070Z,95059.66
2022-10-11T01:56:37.029Z,95057.75
2022-10-11T01:59:21.085Z,95066.88
2022-10-11T02:01:59.618Z,95061.00
2022-10-11T02:04:34.705Z,95059.66
2022-10-11T02:07:11.631Z,95062.97
2022-10-11T02:09:46.606Z,95057.75
2022-10-11T02:12:24.767Z,95057.47
2022-10-11T02:14:57.097Z,95050.72
2022-10-11T02:17:32.911Z,95061.22
2022-10-11T02:20:05.047Z,95048.34
2022-10-11T02:22:36.710Z,95048.50
2022-10-11T02:25:09.864Z,95043.13
2022-10-11T02:27:41.790Z,95039.19
2022-10-11T02:30:11.236Z,95042.78
2022-10-11T02:32:44.941Z,95039.88
2022-10-11T02:35:13.626Z,95039.34
2022-10-11T02:37:48.577Z,95038.53
2022-10-11T02:40:22.310Z,95037.63
2022-10-11T02:42:58.761Z,95036.72
2022-10-11T02:45:31.653Z,95034.97
2022-10-11T02:48:02.129Z,95034.50
2022-10-11T02:50:30.204Z,95035.47
2022-10-11T02:52:58.109Z,95039.88
2022-10-11T02:55:26.071Z,95035.13
2022-10-11T02:57:53.931Z,95025.97
2022-10-11T03:00:22.151Z,95030.53
2022-10-11T03:02:50.225Z,95030.50
2022-10-11T03:05:19.679Z,95021.38
2022-10-11T03:07:47.575Z,95025.97
2022-10-11T03:10:15.518Z,95025.69
2022-10-11T03:12:43.478Z,95012.97
2022-10-11T03:15:12.047Z,95014.97
2022-10-11T03:17:40.115Z,95005.09
2022-10-11T03:20:09.202Z,95025.41
2022-10-11T03:22:38.685Z,95025.59
2022-10-11T03:25:07.085Z,95021.56
2022-10-11T03:27:35.082Z,95012.34
2022-10-11T03:30:03.765Z,95011.00
2022-10-11T03:32:31.725Z,95014.59
2022-10-11T03:34:59.601Z,95018.56
2022-10-11T03:37:27.580Z,95020.66
2022-10-11T03:39:56.857Z,95014.88
2022-10-11T03:42:24.790Z,95006.25
2022-10-11T03:44:52.785Z,95014.28
2022-10-11T03:47:20.883Z,95002.03
2022-10-11T03:49:48.832Z,95001.22
2022-10-11T03:52:16.740Z,94990.47
2022-10-11T03:54:44.860Z,94995.38
2022-10-11T03:57:14.146Z,95004.13
2022-10-11T03:59:42.129Z,94990.59
2022-10-11T04:02:10.148Z,94996.91
2022-10-11T04:04:41.124Z,94997.28
2022-10-11T04:07:09.427Z,94994.56
2022-10-11T04:09:37.574Z,95005.78
2022-10-11T04:12:05.844Z,95000.88
2022-10-11T04:14:42.514Z,95004.63
2022-10-11T04:17:10.466Z,95004.13
2022-10-11T04:19:38.460Z,95004.13
2022-10-11T04:22:06.963Z,94998.16
2022-10-11T04:24:34.892Z,95005.16
2022-10-11T04:27:02.986Z,95003.94
2022-10-11T04:29:32.792Z,95005.09
2022-10-11T04:32:02.444Z,94997.56
2022-10-11T04:34:30.333Z,95002.78
2022-10-11T04:36:58.407Z,95013.19
2022-10-11T04:39:26.290Z,95010.78
2022-10-11T04:41:54.191Z,95007.88
2022-10-11T04:44:22.387Z,94992.25
2022-10-11T04:46:50.211Z,95004.13
2022-10-11T04:49:21.276Z,95001.03
2022-10-11T04:51:49.162Z,94999.06
2022-10-11T04:54:17.240Z,95003.84
2022-10-11T04:56:45.226Z,94996.63
2022-10-11T04:59:13.127Z,95000.34
2022-10-11T05:01:41.091Z,95002.41
2022-10-11T05:04:09.331Z,95001.69
2022-10-11T05:06:38.687Z,94997.41
2022-10-11T05:09:06.624Z,95005.03
2022-10-11T05:11:34.549Z,95012.00
2022-10-11T05:14:02.500Z,94995.13
2022-10-11T05:16:30.558Z,94992.88
2022-10-11T05:18:58.487Z,95009.81
2022-10-11T05:21:28.554Z,95007.66
2022-10-11T05:23:58.865Z,95020.25
2022-10-11T05:26:28.355Z,95016.28
2022-10-11T05:28:56.924Z,95019.91
2022-10-11T05:31:25.227Z,95020.97
2022-10-11T05:33:53.196Z,95020.53
2022-10-11T05:36:21.290Z,95024.47
2022-10-11T05:38:49.365Z,95020.72
2022-10-11T05:41:18.967Z,95016.19
2022-10-11T05:43:47.477Z,95020.59
2022-10-11T05:46:15.560Z,95015.25
2022-10-11T05:48:43.562Z,95036.47
2022-10-11T05:51:13.027Z,95036.75
2022-10-11T05:53:41.297Z,95038.13
2022-10-11T05:56:20.711Z,95039.56
2022-10-11T05:58:51.084Z,95032.00
2022-10-11T06:01:21.371Z,95043.47
2022-10-11T06:03:49.702Z,95037.44
2022-10-11T06:06:17.926Z,95047.72
2022-10-11T06:08:46.721Z,95028.59
2022-10-11T06:11:17.325Z,95031.41
2022-10-11T06:13:46.755Z,95026.00
2022-10-11T06:16:14.795Z,95031.94
2022-10-11T06:18:42.992Z,95034.38
2022-10-11T06:21:11.037Z,95030.06
2022-10-11T06:23:39.142Z,95023.38
2022-10-11T06:26:09.793Z,95012.94
2022-10-11T06:28:39.074Z,95021.31
2022-10-11T06:31:09.109Z,95032.66
2022-10-11T06:33:37.678Z,95036.00
2022-10-11T06:36:08.493Z,95025.00
2022-10-11T06:38:39.816Z,95025.44
2022-10-11T06:41:14.686Z,95028.16
2022-10-11T06:43:42.634Z,95031.94
2022-10-11T06:46:12.783Z,95038.94
2022-10-11T06:48:41.681Z,95041.81
2022-10-11T06:51:09.628Z,95046.72
2022-10-11T06:53:38.018Z,95049.66
2022-10-11T06:56:08.483Z,95054.25
2022-10-11T06:58:37.122Z,95063.91
2022-10-11T07:01:06.745Z,95055.59
2022-10-11T07:03:36.190Z,95050.28
2022-10-11T07:06:05.467Z,95059.13
2022-10-11T07:08:34.393Z,95053.97
2022-10-11T07:11:02.687Z,95057.34
2022-10-11T07:13:30.873Z,95050.53
2022-10-11T07:16:01.203Z,95046.34
2022-10-11T07:18:29.388Z,95035.75
2022-10-11T07:21:02.944Z,95039.94
2022-10-11T07:23:31.049Z,95047.06
2022-10-11T07:26:01.322Z,95050.47
2022-10-11T07:28:30.528Z,95047.34
2022-10-11T07:30:59.577Z,95057.56
2022-10-11T07:33:29.189Z,95044.25
2022-10-11T07:36:00.170Z,95061.69
2022-10-11T07:38:28.298Z,95056.91
2022-10-11T07:40:56.459Z,95052.63
2022-10-11T07:43:24.968Z,95063.16
2022-10-11T07:45:55.668Z,95059.19
2022-10-11T07:48:24.053Z,95062.84
2022-10-11T07:50:51.942Z,95064.41
2022-10-11T07:53:21.475Z,95072.44
2022-10-11T07:55:49.901Z,95068.31
2022-10-11T07:58:17.872Z,95072.72
2022-10-11T08:00:45.990Z,95068.97
2022-10-11T08:03:14.072Z,95067.56
2022-10-11T08:05:42.148Z,95069.75
2022-10-11T08:08:10.349Z,95056.66
2022-10-11T08:10:41.051Z,95064.66
2022-10-11T08:13:09.011Z,95068.88
2022-10-11T08:15:37.009Z,95072.31
2022-10-11T08:18:05.435Z,95073.78
2022-10-11T08:20:33.412Z,95083.66
2022-10-11T08:23:01.773Z,95087.53
2022-10-11T08:25:29.794Z,95092.41
2022-10-11T08:27:59.228Z,95099.13
2022-10-11T08:30:27.146Z,95095.88
2022-10-11T08:32:55.054Z,95094.13
2022-10-11T08:35:23.044Z,95087.50
2022-10-11T08:37:52.387Z,95084.88
2022-10-11T08:40:23.874Z,95087.97
2022-10-11T08:42:59.202Z,95089.31
2022-10-11T08:45:37.050Z,95090.31
2022-10-11T08:48:13.868Z,95090.50
2022-10-11T08:50:43.924Z,95086.03
2022-10-11T08:53:20.882Z,95090.59
2022-10-11T08:55:52.105Z,95092.75
2022-10-11T08:58:24.345Z,95080.44
2022-10-11T09:00:57.970Z,95103.50
2022-10-11T09:03:34.405Z,95101.47
2022-10-11T09:06:13.767Z,95100.03
2022-10-11T09:08:57.579Z,95098.25
2022-10-11T09:11:37.545Z,95089.44
2022-10-11T09:14:31.377Z,95099.03
2022-10-11T09:17:12.400Z,95098.44
2022-10-11T09:20:19.357Z,95104.94
2022-10-11T09:22:55.388Z,95108.56
2022-10-11T09:25:26.514Z,95095.66
2022-10-11T09:28:14.429Z,95106.63
2022-10-11T09:30:48.814Z,95113.34
2022-10-11T09:33:24.692Z,95117.50
2022-10-11T09:35:53.702Z,95113.88
2022-10-11T09:38:42.296Z,95118.56
2022-10-11T09:41:17.882Z,95110.91
2022-10-11T09:43:50.679Z,95116.81
2022-10-11T09:46:24.873Z,95105.09
2022-10-11T09:48:57.418Z,95112.59
2022-10-11T09:51:28.592Z,95109.56
2022-10-11T09:53:59.375Z,95105.94
2022-10-11T09:56:30.399Z,95104.13
2022-10-11T09:59:10.678Z,95113.59
2022-10-11T10:01:40.916Z,95112.56
2022-10-11T10:04:15.380Z,95106.28
2022-10-11T10:06:43.729Z,95108.88
2022-10-11T10:09:31.514Z,95115.19
2022-10-11T10:11:59.579Z,95112.53
2022-10-11T10:14:30.494Z,95115.56
2022-10-11T10:17:04.502Z,95110.47
2022-10-11T10:19:45.096Z,95109.22
2022-10-11T10:22:20.016Z,95113.09
2022-10-11T10:24:49.458Z,95111.88
2022-10-11T10:27:21.402Z,95098.59
2022-10-11T10:30:16.029Z,95107.09
2022-10-11T10:32:52.358Z,95109.09
2022-10-11T10:35:32.128Z,95112.34
2022-10-11T10:38:09.756Z,95109.47
2022-10-11T10:40:42.400Z,95097.00
2022-10-11T10:43:16.658Z,95098.59
2022-10-11T10:46:02.283Z,95101.47
2022-10-11T10:49:18.799Z,95093.75
2022-10-11T10:51:44.263Z,95098.53
2022-10-11T10:54:24.025Z,95102.97
2022-10-11T10:56:56.885Z,95086.50
2022-10-11T10:59:47.312Z,95088.34
2022-10-11T11:02:39.762Z,95090.66
2022-10-11T11:05:18.903Z,95077.16
2022-10-11T11:07:53.444Z,95089.50
2022-10-11T11:10:24.179Z,95083.47
2022-10-11T11:13:02.852Z,95089.41
2022-10-11T11:15:38.515Z,95072.78
2022-10-11T11:18:26.467Z,95085.00
2022-10-11T11:21:09.949Z,95080.88
2022-10-11T11:23:47.525Z,95074.97
2022-10-11T11:26:24.835Z,95078.81
2022-10-11T11:29:04.584Z,95073.81
2022-10-11T11:31:56.056Z,95074.16
2022-10-11T11:34:27.582Z,95067.72
2022-10-11T11:36:59.181Z,95068.31
2022-10-11T11:39:35.074Z,95056.50
2022-10-11T11:42:08.913Z,95055.31
2022-10-11T11:44:40.495Z,95054.19
2022-10-11T11:47:17.999Z,95055.00
2022-10-11T11:49:52.133Z,95055.75
2022-10-11T11:52:28.046Z,95045.88
2022-10-11T11:55:12.197Z,95044.91
2022-10-11T11:58:37.019Z,95047.47
2022-10-11T12:01:14.016Z,95043.66
2022-10-11T12:03:45.551Z,95040.56
2022-10-11T12:06:26.097Z,95046.63
2022-10-11T12:09:03.799Z,95042.91
2022-10-11T12:11:44.285Z,95040.94
2022-10-11T12:14:27.643Z,95046.03
2022-10-11T12:17:13.940Z,95040.44
2022-10-11T12:19:44.486Z,95041.00
2022-10-11T12:22:34.604Z,95043.88
2022-10-11T12:25:24.959Z,95027.22
2022-10-11T12:27:56.273Z,95036.59
2022-10-11T12:30:53.692Z,95040.00
2022-10-11T12:33:24.792Z,95026.09
2022-10-11T12:36:02.665Z,95035.84
2022-10-11T12:38:34.981Z,95027.78
2022-10-11T12:41:36.264Z,95034.72
2022-10-11T12:44:26.290Z,95029.91
2022-10-11T12:47:20.097Z,95026.44
2022-10-11T12:50:04.776Z,95022.69
2022-10-11T12:52:40.998Z,95024.00
2022-10-11T12:55:31.244Z,95021.19
2022-10-11T12:58:27.176Z,95010.69
2022-10-11T13:01:21.666Z,95023.41
2022-10-11T13:03:53.267Z,95019.22
2022-10-11T13:06:25.508Z,95019.69
2022-10-11T13:08:57.727Z,95026.97
2022-10-11T13:11:30.835Z,95025.97
2022-10-11T13:14:01.983Z,95029.41
2022-10-11T13:16:47.040Z,95029.59
2022-10-11T13:19:16.533Z,95030.00
2022-10-11T13:21:44.681Z,95024.97
2022-10-11T13:24:15.070Z,95027.59
2022-10-11T13:26:45.318Z,95022.34
2022-10-11T13:29:18.194Z,95027.41
2022-10-11T13:31:49.414Z,95019.88
2022-10-11T13:34:23.078Z,95022.94
2022-10-11T13:36:57.219Z,95022.53
2022-10-11T13:39:31.273Z,95024.56
2022-10-11T13:42:01.276Z,95022.34
2022-10-11T13:44:29.699Z,95016.69
2022-10-11T13:46:59.252Z,95021.19
2022-10-11T13:49:31.530Z,95025.38
2022-10-11T13:52:01.106Z,95023.22
2022-10-11T13:55:00.348Z,95029.72
2022-10-11T13:57:37.444Z,95027.91
2022-10-11T14:00:10.912Z,95021.59
2022-10-11T14:02:40.835Z,95010.94
2022-10-11T14:05:09.005Z,95006.88
2022-10-11T14:07:39.598Z,95027.91
2022-10-11T14:10:08.186Z,95012.34
2022-10-11T14:12:40.599Z,95018.81
2022-10-11T14:15:28.737Z,95014.16
2022-10-11T14:17:59.230Z,95007.50
2022-10-11T14:20:36.115Z,95009.72
2022-10-11T14:23:04.265Z,94999.44
2022-10-11T14:25:32.613Z,95003.25
2022-10-11T14:28:00.834Z,95009.53
2022-10-11T14:30:31.613Z,94994.41
2022-10-11T14:33:04.004Z,94999.03
2022-10-11T14:35:33.856Z,94996.59
2022-10-11T14:38:01.899Z,94998.00
2022-10-11T14:40:32.144Z,94998.19
2022-10-11T14:43:00.297Z,94993.97
2022-10-11T14:45:28.379Z,95003.22
2022-10-11T14:47:57.041Z,95007.69
2022-10-11T14:50:39.171Z,95001.19
2022-10-11T14:53:08.403Z,95007.22
2022-10-11T14:55:37.601Z,95003.41
2022-10-11T14:58:06.849Z,95008.06
2022-10-11T15:00:36.382Z,95014.31
2022-10-11T15:03:07.150Z,95020.94
2022-10-11T15:05:37.737Z,95016.50
2022-10-11T15:08:06.835Z,95023.75
2022-10-11T15:10:37.999Z,95020.50
2022-10-11T15:13:08.162Z,95005.94
2022-10-11T15:15:40.842Z,95015.81
2022-10-11T15:18:13.276Z,95018.19
2022-10-11T15:20:45.249Z,95014.59
2022-10-11T15:23:13.760Z,95016.00
2022-10-11T15:25:42.495Z,95013.75
2022-10-11T15:28:21.244Z,95016.91
2022-10-11T15:30:49.271Z,95017.75
2022-10-11T15:33:17.228Z,95010.69
2022-10-11T15:35:47.089Z,95016.06
2022-10-11T15:38:18.610Z,95011.59
2022-10-11T15:40:47.379Z,95019.06
2022-10-11T15:43:15.767Z,95019.69
2022-10-11T15:45:44.133Z,95014.66
2022-10-11T15:48:15.977Z,95017.50
2022-10-11T15:50:44.366Z,95025.28
2022-10-11T15:53:15.607Z,95015.72
2022-10-11T15:55:45.452Z,95020.19
2022-10-11T15:58:15.627Z,95021.41
2022-10-11T16:00:44.013Z,95022.75
2022-10-11T16:03:13.757Z,95030.63
2022-10-11T16:05:42.992Z,95038.66
2022-10-11T16:08:11.576Z,95016.78
2022-10-11T16:10:41.534Z,95041.00
2022-10-11T16:13:09.956Z,95040.41
2022-10-11T16:15:42.383Z,95037.97
2022-10-11T16:18:12.809Z,95032.50
2022-10-11T16:20:41.658Z,95042.66
2022-10-11T16:23:09.866Z,95032.09
2022-10-11T16:25:38.695Z,95043.41
2022-10-11T16:28:09.192Z,95038.97
2022-10-11T16:30:40.724Z,95051.69
2022-10-11T16:33:08.741Z,95054.94
2022-10-11T16:35:36.661Z,95042.19
2022-10-11T16:38:04.637Z,95059.41
2022-10-11T16:40:34.353Z,95054.84
2022-10-11T16:43:07.902Z,95057.97
2022-10-11T16:45:38.203Z,95061.78
2022-10-11T16:48:07.609Z,95056.34
2022-10-11T16:50:39.309Z,95044.56
2022-10-11T16:53:07.799Z,95051.88
2022-10-11T16:55:35.749Z,95052.66
2022-10-11T16:58:03.806Z,95058.50
2022-10-11T17:00:31.872Z,95043.47
2022-10-11T17:03:01.565Z,95049.75
2022-10-11T17:05:29.596Z,95051.19
2022-10-11T17:07:57.687Z,95054.44
2022-10-11T17:10:39.404Z,95052.44
2022-10-11T17:13:07.777Z,95059.69
2022-10-11T17:15:36.207Z,95050.19
2022-10-11T17:18:05.658Z,95060.28
2022-10-11T17:20:33.839Z,95061.72
2022-10-11T17:23:01.865Z,95055.88
2022-10-11T17:25:30.145Z,95059.72
2022-10-11T17:27:58.697Z,95071.38
2022-10-11T17:30:26.716Z,95075.97
2022-10-11T17:32:55.253Z,95069.41
2022-10-11T17:35:24.613Z,95068.00
2022-10-11T17:37:52.529Z,95067.03
2022-10-11T17:40:20.563Z,95058.97
2022-10-11T17:42:48.684Z,95060.53
2022-10-11T17:45:18.973Z,95057.53
2022-10-11T17:47:47.537Z,95066.28
2022-10-11T17:50:15.982Z,95071.31
2022-10-11T17:52:46.087Z,95070.69
2022-10-11T17:55:15.146Z,95079.13
2022-10-11T17:57:43.338Z,95085.19
2022-10-11T18:00:12.578Z,95071.44
2022-10-11T18:02:42.805Z,95080.34
2022-10-11T18:05:14.337Z,95074.28
2022-10-11T18:07:42.266Z,95075.47
2022-10-11T18:10:12.400Z,95073.81
2022-10-11T18:12:40.464Z,95080.97
2022-10-11T18:15:09.956Z,95068.31
2022-10-11T18:17:38.672Z,95064.28
2022-10-11T18:20:07.438Z,95064.47
2022-10-11T18:22:35.389Z,95057.50
2022-10-11T18:25:03.410Z,95068.09
2022-10-11T18:27:32.882Z,95059.00
2022-10-11T18:30:00.902Z,95066.72
2022-10-11T18:32:28.863Z,95062.31
2022-10-11T18:34:58.694Z,95062.66
2022-10-11T18:37:26.860Z,95054.56
2022-10-11T18:39:55.246Z,95050.34
2022-10-11T18:42:25.749Z,95035.97
2022-10-11T18:44:58.281Z,95043.38
2022-10-11T18:47:29.453Z,95027.38
2022-10-11T18:49:57.401Z,95031.34
2022-10-11T18:52:25.371Z,95022.88
2022-10-11T18:54:53.501Z,95022.63
2022-10-11T18:57:23.635Z,95015.53
2022-10-11T18:59:51.674Z,95014.09
2022-10-11T19:02:21.101Z,95020.84
2022-10-11T19:04:52.728Z,95014.72
2022-10-11T19:07:20.937Z,95007.81
2022-10-11T19:09:57.450Z,95002.66
2022-10-11T19:12:29.863Z,95007.75
2022-10-11T19:14:58.176Z,94996.75
2022-10-11T19:17:31.949Z,95010.78
2022-10-11T19:20:36.522Z,94998.38
2022-10-11T19:23:05.010Z,95009.16
2022-10-11T19:25:41.240Z,95010.25
2022-10-11T19:28:16.474Z,95012.06
2022-10-11T19:30:50.075Z,95008.81
2022-10-11T19:33:21.290Z,95014.50
2022-10-11T19:36:02.558Z,95006.13
2022-10-11T19:38:31.275Z,95010.25
2022-10-11T19:41:04.047Z,94998.94
2022-10-11T19:43:39.414Z,95004.97
2022-10-11T19:46:27.341Z,95006.00
2022-10-11T19:49:06.763Z,95005.75
2022-10-11T19:51:47.570Z,95001.63
2022-10-11T19:54:22.878Z,94979.75
2022-10-11T19:56:55.244Z,95006.41
2022-10-11T19:59:26.731Z,95006.00
2022-10-11T20:01:58.697Z,95008.28
2022-10-11T20:04:51.567Z,95006.84
2022-10-11T20:07:24.325Z,95015.13
2022-10-11T20:09:55.399Z,95007.28
2022-10-11T20:12:23.603Z,95010.00
2022-10-11T20:14:55.507Z,95005.16
2022-10-11T20:17:46.579Z,95016.47
2022-10-11T20:20:16.650Z,95012.72
2022-10-11T20:22:44.874Z,95014.50
2022-10-11T20:25:13.097Z,95021.53
2022-10-11T20:27:43.410Z,95017.56
2022-10-11T20:30:14.028Z,95015.13
2022-10-11T20:32:42.183Z,95003.59
2022-10-11T20:35:10.573Z,95017.19
2022-10-11T20:37:39.953Z,95005.66
2022-10-11T20:40:08.908Z,95004.09
2022-10-11T20:42:36.898Z,95017.03
2022-10-11T20:45:05.416Z,95019.63
2022-10-11T20:47:33.829Z,95000.78
2022-10-11T20:50:02.004Z,95019.63
2022-10-11T20:52:32.251Z,95021.22
2022-10-11T20:55:01.947Z,95022.41
2022-10-11T20:57:29.926Z,95023.03
2022-10-11T20:59:58.050Z,95022.25
2022-10-11T21:02:25.980Z,95029.00
2022-10-11T21:04:54.281Z,95031.81
2022-10-11T21:07:22.728Z,95029.84
2022-10-11T21:09:50.704Z,95023.16
2022-10-11T21:12:19.990Z,95023.72
2022-10-11T21:14:47.975Z,95020.09
2022-10-11T21:17:15.943Z,95017.66
2022-10-11T21:19:43.885Z,95019.72
2022-10-11T21:22:12.027Z,95014.88
2022-10-11T21:24:39.981Z,95013.59
2022-10-11T21:27:07.935Z,95010.81
2022-10-11T21:29:37.444Z,95004.25
2022-10-11T21:32:05.384Z,95004.78
2022-10-11T21:34:33.577Z,95005.16
2022-10-11T21:37:01.542Z,95011.00
2022-10-11T21:39:29.627Z,95012.53
2022-10-11T21:41:57.630Z,95001.28
2022-10-11T21:44:25.642Z,95002.63
2022-10-11T21:47:06.476Z,94995.81
2022-10-11T21:49:34.875Z,94999.03
2022-10-11T21:52:03.127Z,95007.75
2022-10-11T21:54:31.221Z,95006.88
2022-10-11T21:56:59.528Z,95017.59
2022-10-11T21:59:27.472Z,95012.00
2022-10-11T22:02:01.502Z,95002.28
2022-10-11T22:04:29.915Z,95005.41
2022-10-11T22:06:57.796Z,94990.28
2022-10-11T22:09:25.761Z,95001.06
2022-10-11T22:11:53.745Z,95000.19
2022-10-11T22:14:22.314Z,94996.59
2022-10-11T22:16:50.274Z,94996.38
2022-10-11T22:19:19.557Z,94991.50
2022-10-11T22:21:47.569Z,94991.19
2022-10-11T22:24:16.705Z,94990.84
2022-10-11T22:26:44.703Z,94987.97
2022-10-11T22:29:12.653Z,94986.16
2022-10-11T22:31:40.717Z,94990.94
2022-10-11T22:34:08.828Z,94995.25
2022-10-11T22:36:38.933Z,94992.03
2022-10-11T22:39:08.165Z,94995.19
2022-10-11T22:41:36.502Z,94990.34
2022-10-11T22:44:04.482Z,94995.03
2022-10-11T22:46:33.182Z,95000.34
2022-10-11T22:49:01.176Z,94997.84
2022-10-11T22:51:29.142Z,94996.28
2022-10-11T22:53:58.417Z,94995.66
2022-10-11T22:56:26.474Z,94998.81
2022-10-11T22:58:54.457Z,95004.75
2022-10-11T23:01:22.445Z,95003.31
2022-10-11T23:03:50.781Z,94996.22
2022-10-11T23:06:19.028Z,95001.88
2022-10-11T23:08:46.954Z,95010.78
2022-10-11T23:11:16.657Z,95003.91
2022-10-11T23:13:44.651Z,94988.97
2022-10-11T23:16:13.829Z,94997.88
2022-10-11T23:18:41.891Z,95002.78
2022-10-11T23:21:10.256Z,94997.06
2022-10-11T23:27:26.349Z,94994.47
2022-10-11T23:29:54.281Z,94997.06
2022-10-11T23:32:22.247Z,95003.22
2022-10-11T23:34:51.416Z,94995.56
2022-10-11T23:37:19.469Z,95001.25
2022-10-11T23:39:47.416Z,95005.03
2022-10-11T23:42:15.336Z,95004.09
2022-10-11T23:44:44.625Z,94998.69
2022-10-11T23:47:12.573Z,95006.47
2022-10-11T23:49:40.524Z,95004.75
2022-10-11T23:52:08.443Z,95001.47
2022-10-11T23:54:36.405Z,95001.03
2022-10-11T23:57:04.447Z,95002.47
2022-10-11T23:59:32.332Z,95009.16
